Status Flugplatz

Der Flugplatz ist offen
PPR Regelung ! PJE !!!

123.15 MHz
RWY 05/23

flüger beizli - Öffnungszeiten
Freitag ab 16:00
Samstag +Sonntag ab 11:00
Bei schönem Wetter öffnen wir früher! Tel.: 079 234 07 74

Herzlich willkommen auf der Homepage des Flugplatz Biel-Kappelen

Wir freuen uns über Ihren Besuch auf unserem schönen Flugplatz im Berner Seeland. Ob zu Fuss, per Velo, Motorrad, Auto oder Flugzeug Sie sind uns jederzeit herzlich willkommen. 


 

 

Wetter Kappelen

 


 

[source: ADDS]
METAR
LSZG 121350Z 28006KT 9999 -SHRASN SCT010 BKN018 03/00 Q1013 NOSIG =
TAF
TAF LSZG 121125Z 1212/1221 23005KT 6000 -SHSN OVC008 BECMG 1212/1215 NSW BKN025 =
SR / SS: 07:09 / 15:42 UTC ( 2017-12-12)

 


 

Besucherzähler

HeuteHeute48
Seit BeginnSeit Beginn103129
Guests 3

Flugplatz Biel-Kappelen LSZP - 123.15MHz - 032 384 46 84

Email: Diese E-Mail-Adresse ist vor Spambots geschützt! Zur Anzeige muss JavaScript eingeschaltet sein!
www.lszp.ch
2017 © by mb

Zum Anfang